Heber Springs, AR (72543)

5:25 AM CDT on July 28, 2015 (GMT -0500)
Greers Ferry Lake | | Change Station
CLOSE
Current Station
Personal Weather Station
Location: Heber Springs, AR
Elevation: 502 ft
Nearby Weather Stations
Active Advisory: Heat Advisory

Elev 502 ft 35.53 °N, 92.04 °W | Updated 44 seconds ago

Clear
Clear
76.8 °F
Feels Like 78 °F
N
0.0
Wind Variable Wind from NE
Gusts 0.0 mph

Today
High -- | Low -- °F
--% Chance of Precip.
Yesterday
High -- | Low -- °F
Precip. -- in
6:13 AM 8:15 PM
Waxing Gibbous, 88% visible
Pressure 29.96 in
Visibility 4.0 miles
Clouds Mostly Cloudy 200 ft
Heat Index 78 °F
Dew Point 73 °F
Humidity 87%
Rainfall 0.00 in
Snow Depth Not available.
UV 0 out of 12
Pollen 3.80 out of 12
Air Quality Not available.
Flu Activity Not available.
METAR KCCA 281015Z AUTO 00000KT 4SM BR BKN002 23/23 A2996 RMK AO2

More Conditions Fewer Conditions

Pressure 29.96 in
Visibility 4.0 miles
Clouds Mostly Cloudy 200 ft
Heat Index 78 °F
Dew Point 73 °F
Humidity 87%
Rainfall 0.00 in
Snow Depth Not available.
UV 0 out of 12
Pollen 3.80 out of 12
Air Quality Not available.
Flu Activity Not available.
METAR KCCA 281015Z AUTO 00000KT 4SM BR BKN002 23/23 A2996 RMK AO2

More Conditions Fewer Conditions

10-Day Weather Forecast

×

Almanac

Astronomy

Jul. 28, 2015 Rise Set
Actual Time
Civil Twilight
Nautical Twilight
Astronomical Twilight
Moon
Length of Visible Light
Length of Day
Tomorrow will be .
, % of the Moon is Illuminated

Today's Extremes

State Highs State Lows

Community

WunderPhotos

Upload Photos

1,841,800 photos uploaded!

WunderBlogs® & News

Nearby

Air Quality

  Air Quality AQ Index Pollutant
Not available.

Snow Depth

Station Depth Elevation

Earthquake Activity

City Distance Mag. Time & Date
Minimum magnitude displayed is 2.5.

Coastal Water Temperatures

Place Temperature

Stations

Nearby Weather Stations

Station Location Temp. Windchill Dew Point Humidity Wind Precip. Elev Updated Type
                   
Heat Advisory
Statement as of 4:19 AM CDT on July 28, 2015

... Heat advisory remains in effect until 7 PM CDT this evening...

A heat advisory remains in effect until 7 PM CDT this evening.

* Areas affected: a large part of Arkansas.

* Heat index: afternoon and early evening heat index values are
expected to reach 105 to 110 degrees... with a few locations
briefly exceeding 110 degrees.

* Impacts: when it is this hot... and especially for a prolonged
time... heat illnesses become more of a concern.

Precautionary/preparedness actions...

A heat advisory means that a combination of hot temperatures and
high humidity will combine to create a situation in which heat
illnesses are possible. Drink plenty of fluids... go to an air-
conditioned room... stay out of the sun... and check up on
relatives and neighbors.



46